Time;durP1;ratioP1;P1;durP2;ratioP2;P2;SDS_P1;SDS_P2;PMS_P1;PMS_P2;Temp;Humidity;BMP_temperature;BMP_pressure;BME280_temperature;BME280_humidity;BME280_pressure;Samples;Min_cycle;Max_cycle;Signal;HPM_P1;HPM_P2
2021/10/18 00:01:53;;;;;;;14.43;6.73;;;;;;;;;;4973041;28;20232;-78
2021/10/18 00:04:20;;;;;;;14.10;7.07;;;;;;;;;;4974906;28;20222;-77
2021/10/18 00:06:48;;;;;;;12.00;6.60;;;;;;;;;;4993385;28;20217;-77
2021/10/18 00:09:15;;;;;;;11.67;6.47;;;;;;;;;;4981418;28;20217;-78
2021/10/18 00:11:43;;;;;;;11.83;6.47;;;;;;;;;;4968332;28;20280;-78
2021/10/18 00:14:11;;;;;;;14.13;6.77;;;;;;;;;;4957803;28;20344;-76
2021/10/18 00:16:39;;;;;;;11.27;6.70;;;;;;;;;;4963862;28;20205;-77
2021/10/18 00:19:06;;;;;;;18.07;7.13;;;;;;;;;;4963032;28;20209;-77
2021/10/18 00:21:33;;;;;;;13.07;5.70;;;;;;;;;;4969740;28;20836;-77
2021/10/18 00:24:00;;;;;;;17.50;6.37;;;;;;;;;;4972872;28;20233;-78
2021/10/18 00:26:27;;;;;;;11.37;5.73;;;;;;;;;;4970253;28;20296;-77
2021/10/18 00:28:56;;;;;;;13.80;6.27;;;;;;;;;;4962518;28;20202;-78
2021/10/18 00:31:45;;;;;;;13.17;6.17;;;;;;;;;;4957127;28;20228;-77
2021/10/18 00:34:12;;;;;;;15.67;5.63;;;;;;;;;;4968015;28;20300;-77
2021/10/18 00:36:39;;;;;;;15.57;6.00;;;;;;;;;;4956530;28;20221;-76
2021/10/18 00:39:07;;;;;;;15.37;5.90;;;;;;;;;;4971197;28;20233;-78
2021/10/18 00:41:34;;;;;;;14.43;6.17;;;;;;;;;;4961697;28;20317;-77
2021/10/18 00:44:02;;;;;;;13.00;5.87;;;;;;;;;;4960923;28;20593;-76
2021/10/18 00:46:31;;;;;;;13.63;6.30;;;;;;;;;;4960360;28;20296;-76
2021/10/18 00:48:58;;;;;;;14.20;5.77;;;;;;;;;;4969604;28;20213;-77
2021/10/18 00:51:27;;;;;;;12.70;6.00;;;;;;;;;;4971627;28;20236;-76
2021/10/18 00:53:56;;;;;;;11.77;5.90;;;;;;;;;;4971507;28;20704;-78
2021/10/18 00:56:23;;;;;;;9.10;5.13;;;;;;;;;;4971953;28;20300;-78
2021/10/18 00:58:51;;;;;;;10.53;5.50;;;;;;;;;;4971163;28;20296;-77
2021/10/18 01:01:20;;;;;;;11.17;6.20;;;;;;;;;;4969289;28;20607;-77
2021/10/18 01:03:47;;;;;;;12.73;5.90;;;;;;;;;;4970240;28;20296;-77
2021/10/18 01:06:14;;;;;;;11.80;6.10;;;;;;;;;;4970666;28;20289;-77
2021/10/18 01:08:42;;;;;;;14.90;5.60;;;;;;;;;;4970924;28;20297;-77
2021/10/18 01:11:09;;;;;;;12.70;5.83;;;;;;;;;;4963718;28;20253;-77
2021/10/18 01:13:38;;;;;;;7.87;5.00;;;;;;;;;;4975969;28;20233;-77
2021/10/18 01:16:07;;;;;;;11.17;5.33;;;;;;;;;;4971215;28;20261;-77
2021/10/18 01:18:35;;;;;;;12.23;5.93;;;;;;;;;;4969205;28;20201;-78
2021/10/18 01:21:04;;;;;;;9.57;5.40;;;;;;;;;;4962012;28;20722;-77
2021/10/18 01:23:32;;;;;;;10.33;5.50;;;;;;;;;;4957106;28;20302;-77
2021/10/18 01:25:59;;;;;;;17.70;5.83;;;;;;;;;;4951080;28;20225;-77
2021/10/18 01:28:26;;;;;;;12.07;5.60;;;;;;;;;;4947620;28;20210;-78
2021/10/18 01:30:54;;;;;;;10.73;6.07;;;;;;;;;;4964474;28;20779;-78
2021/10/18 01:33:21;;;;;;;9.83;5.67;;;;;;;;;;4972448;28;20237;-77
2021/10/18 01:35:48;;;;;;;11.30;5.73;;;;;;;;;;4969450;28;20659;-78
2021/10/18 01:38:17;;;;;;;10.33;5.30;;;;;;;;;;4970042;28;20241;-77
2021/10/18 01:40:44;;;;;;;10.63;5.63;;;;;;;;;;4970811;28;20312;-76
2021/10/18 01:43:11;;;;;;;12.23;5.00;;;;;;;;;;4972389;28;20271;-77
2021/10/18 01:45:39;;;;;;;9.73;5.17;;;;;;;;;;4958982;28;21288;-77
2021/10/18 01:48:06;;;;;;;12.43;5.90;;;;;;;;;;4965238;28;20288;-78
2021/10/18 01:50:33;;;;;;;10.67;5.30;;;;;;;;;;4969245;28;20226;-77
2021/10/18 01:53:00;;;;;;;11.17;5.53;;;;;;;;;;4967156;28;20297;-78
2021/10/18 01:55:29;;;;;;;10.83;4.90;;;;;;;;;;4971359;28;20237;-77
2021/10/18 01:57:56;;;;;;;11.80;5.70;;;;;;;;;;4968745;28;20909;-78
2021/10/18 02:00:23;;;;;;;9.63;5.00;;;;;;;;;;4969684;28;20252;-76
2021/10/18 02:02:51;;;;;;;9.67;4.90;;;;;;;;;;4974576;23;20273;-77
2021/10/18 02:05:18;;;;;;;12.73;5.07;;;;;;;;;;4979586;23;20352;-85
2021/10/18 02:07:50;;;;;;;10.07;5.33;;;;;;;;;;4973377;28;20244;-86
2021/10/18 02:25:39;;;;;;;10.30;4.47;;;;;;;;;;4925288;29;20237;-86
2021/10/18 02:28:06;;;;;;;12.00;4.60;;;;;;;;;;4932963;29;20217;-85
2021/10/18 02:30:34;;;;;;;9.63;5.53;;;;;;;;;;4954247;28;20212;-85
2021/10/18 02:33:01;;;;;;;8.50;4.70;;;;;;;;;;4991595;28;20209;-85
2021/10/18 02:35:28;;;;;;;10.90;4.63;;;;;;;;;;4993605;28;20239;-84
2021/10/18 02:37:56;;;;;;;11.93;4.30;;;;;;;;;;4991340;28;20303;-84
2021/10/18 02:40:23;;;;;;;11.30;4.80;;;;;;;;;;4992849;28;20225;-85
2021/10/18 02:42:52;;;;;;;9.93;4.77;;;;;;;;;;4993723;28;20236;-84
2021/10/18 02:45:19;;;;;;;8.63;4.50;;;;;;;;;;4994375;28;20496;-84
2021/10/18 02:47:46;;;;;;;11.57;5.03;;;;;;;;;;4992479;28;20238;-85
2021/10/18 02:50:13;;;;;;;12.43;4.53;;;;;;;;;;4991021;28;20232;-85
2021/10/18 02:52:40;;;;;;;11.37;4.90;;;;;;;;;;4982132;28;20297;-85
2021/10/18 02:55:08;;;;;;;13.07;5.10;;;;;;;;;;4982954;28;20225;-85
2021/10/18 02:57:35;;;;;;;15.70;4.60;;;;;;;;;;4983090;28;20232;-85
2021/10/18 03:00:05;;;;;;;12.50;4.87;;;;;;;;;;4980448;28;20631;-86
2021/10/18 03:02:33;;;;;;;12.27;4.53;;;;;;;;;;4977972;28;20480;-86
2021/10/18 03:07:41;;;;;;;10.40;4.60;;;;;;;;;;4978356;28;20825;-86
2021/10/18 03:10:09;;;;;;;12.07;5.00;;;;;;;;;;4979580;28;20210;-85
2021/10/18 03:12:36;;;;;;;9.07;4.83;;;;;;;;;;4978259;28;20500;-86
2021/10/18 03:15:05;;;;;;;8.77;4.03;;;;;;;;;;4979726;28;20254;-87
2021/10/18 03:17:32;;;;;;;12.13;5.27;;;;;;;;;;4979131;28;20244;-85
2021/10/18 03:20:00;;;;;;;15.33;5.27;;;;;;;;;;4979982;28;20294;-86
2021/10/18 03:22:27;;;;;;;8.63;4.67;;;;;;;;;;4979965;28;20310;-86
2021/10/18 03:24:54;;;;;;;10.40;5.23;;;;;;;;;;4981183;28;20356;-86
2021/10/18 03:27:22;;;;;;;10.83;5.00;;;;;;;;;;4977920;28;20292;-86
2021/10/18 03:29:49;;;;;;;11.30;4.80;;;;;;;;;;4980664;28;20830;-86
2021/10/18 03:32:18;;;;;;;10.13;4.90;;;;;;;;;;4979684;28;21035;-87
2021/10/18 03:34:45;;;;;;;10.37;5.23;;;;;;;;;;4983268;28;20562;-85
2021/10/18 03:37:12;;;;;;;9.83;5.13;;;;;;;;;;4982402;28;20468;-86
2021/10/18 03:39:40;;;;;;;11.10;5.10;;;;;;;;;;4982401;28;20475;-86
2021/10/18 03:42:07;;;;;;;9.97;4.70;;;;;;;;;;4983313;28;20288;-86
2021/10/18 03:44:34;;;;;;;8.97;4.70;;;;;;;;;;4982422;28;20864;-86
2021/10/18 03:47:02;;;;;;;13.60;5.47;;;;;;;;;;4982719;28;20331;-86
2021/10/18 03:49:31;;;;;;;12.93;4.97;;;;;;;;;;4983793;28;20551;-87
2021/10/18 03:51:58;;;;;;;12.77;4.93;;;;;;;;;;4981317;28;20559;-86
2021/10/18 03:54:25;;;;;;;14.50;4.77;;;;;;;;;;4982112;28;21170;-86
2021/10/18 03:56:52;;;;;;;11.37;4.63;;;;;;;;;;4981691;28;20495;-87
2021/10/18 03:59:19;;;;;;;9.63;4.80;;;;;;;;;;4984222;28;20963;-86
2021/10/18 04:01:48;;;;;;;11.20;4.87;;;;;;;;;;4981198;28;20561;-85
2021/10/18 04:04:15;;;;;;;9.67;4.93;;;;;;;;;;4981125;28;20865;-86
2021/10/18 04:06:43;;;;;;;9.33;4.97;;;;;;;;;;4982066;28;20508;-86
2021/10/18 04:09:14;;;;;;;9.93;5.00;;;;;;;;;;4983754;28;20551;-84
2021/10/18 04:11:41;;;;;;;13.00;5.03;;;;;;;;;;4985954;28;20571;-85
2021/10/18 04:14:09;;;;;;;11.50;4.60;;;;;;;;;;4987916;28;20529;-85
2021/10/18 04:16:36;;;;;;;11.40;4.33;;;;;;;;;;4988325;28;20456;-85
2021/10/18 04:19:04;;;;;;;9.30;4.93;;;;;;;;;;4989521;28;20476;-83
2021/10/18 04:21:31;;;;;;;9.83;4.87;;;;;;;;;;4984654;28;20477;-86
2021/10/18 04:24:00;;;;;;;8.57;4.23;;;;;;;;;;4988014;28;20486;-83
2021/10/18 04:26:28;;;;;;;10.60;4.70;;;;;;;;;;4986596;28;20489;-83
2021/10/18 04:28:55;;;;;;;8.43;4.60;;;;;;;;;;4989163;28;20471;-85
2021/10/18 04:31:25;;;;;;;10.67;4.87;;;;;;;;;;4985639;28;20462;-85
2021/10/18 04:33:52;;;;;;;8.43;4.40;;;;;;;;;;4987929;28;20456;-84
2021/10/18 04:36:20;;;;;;;12.50;5.77;;;;;;;;;;4989457;28;20519;-83
2021/10/18 04:38:47;;;;;;;9.70;4.63;;;;;;;;;;4987233;28;20729;-84
2021/10/18 04:41:15;;;;;;;10.03;5.47;;;;;;;;;;4983865;28;20452;-86
2021/10/18 04:43:43;;;;;;;11.43;4.90;;;;;;;;;;4993889;28;20456;-85
2021/10/18 04:46:10;;;;;;;10.77;5.30;;;;;;;;;;4993796;28;20552;-87
2021/10/18 04:48:37;;;;;;;12.83;4.83;;;;;;;;;;4987689;28;20632;-86
2021/10/18 04:54:04;;;;;;;11.27;5.33;;;;;;;;;;4981011;28;20232;-85
2021/10/18 04:56:33;;;;;;;9.60;4.90;;;;;;;;;;4987269;28;20488;-85
2021/10/18 04:59:00;;;;;;;14.63;5.87;;;;;;;;;;4985539;28;20499;-84
2021/10/18 05:01:28;;;;;;;17.20;5.93;;;;;;;;;;4984044;28;20456;-87
2021/10/18 05:03:55;;;;;;;11.13;4.83;;;;;;;;;;4984643;28;20537;-85
2021/10/18 05:06:23;;;;;;;14.03;5.13;;;;;;;;;;4984679;28;20508;-83
2021/10/18 05:08:50;;;;;;;10.40;4.73;;;;;;;;;;4982165;28;20216;-85
2021/10/18 05:11:17;;;;;;;11.93;5.37;;;;;;;;;;4983554;28;20870;-84
2021/10/18 05:13:46;;;;;;;12.47;5.10;;;;;;;;;;4982669;28;20489;-84
2021/10/18 05:16:13;;;;;;;11.03;5.07;;;;;;;;;;4984021;28;20460;-84
2021/10/18 05:18:42;;;;;;;14.90;5.73;;;;;;;;;;4983328;28;20528;-86
2021/10/18 05:21:09;;;;;;;9.93;5.30;;;;;;;;;;4982599;28;20212;-85
2021/10/18 05:23:36;;;;;;;13.33;5.27;;;;;;;;;;4982337;28;20469;-85
2021/10/18 05:26:04;;;;;;;13.00;5.40;;;;;;;;;;4984435;28;20769;-84
2021/10/18 05:28:31;;;;;;;11.83;5.40;;;;;;;;;;4982822;28;21080;-85
2021/10/18 05:31:00;;;;;;;10.20;4.80;;;;;;;;;;4982812;28;20554;-82
2021/10/18 05:33:27;;;;;;;11.97;4.93;;;;;;;;;;4982814;28;20544;-84
2021/10/18 05:35:57;;;;;;;8.77;4.53;;;;;;;;;;4983235;28;20508;-84
2021/10/18 05:38:25;;;;;;;11.73;5.07;;;;;;;;;;4982972;28;20472;-83
2021/10/18 05:40:53;;;;;;;11.93;5.20;;;;;;;;;;4982273;28;20464;-86
2021/10/18 05:43:21;;;;;;;9.97;4.87;;;;;;;;;;4982579;28;20542;-84
2021/10/18 05:45:48;;;;;;;9.20;4.73;;;;;;;;;;4984169;28;20621;-86
2021/10/18 05:48:17;;;;;;;10.77;4.97;;;;;;;;;;4982392;28;20589;-84
2021/10/18 05:50:45;;;;;;;10.33;5.57;;;;;;;;;;4979324;28;21039;-86
2021/10/18 05:53:12;;;;;;;10.23;5.17;;;;;;;;;;4984616;28;20547;-86
2021/10/18 05:55:40;;;;;;;11.33;5.03;;;;;;;;;;4987492;28;20567;-86
2021/10/18 05:58:08;;;;;;;10.70;5.07;;;;;;;;;;4988145;28;20952;-87
2021/10/18 06:00:36;;;;;;;13.73;5.27;;;;;;;;;;4980523;28;20503;-87
2021/10/18 06:03:04;;;;;;;8.70;4.77;;;;;;;;;;4980517;28;21283;-86
2021/10/18 06:05:33;;;;;;;14.47;5.30;;;;;;;;;;4981698;28;20513;-83
2021/10/18 06:08:07;;;;;;;9.93;5.27;;;;;;;;;;4983595;28;20526;-86
2021/10/18 06:10:35;;;;;;;14.43;5.70;;;;;;;;;;4984886;28;20468;-87
2021/10/18 06:13:06;;;;;;;11.77;5.80;;;;;;;;;;4981229;28;20971;-87
2021/10/18 06:15:33;;;;;;;15.63;5.20;;;;;;;;;;4980042;28;20508;-86
2021/10/18 08:05:00;;;;;;;11.07;4.23;;;;;;;;;;5010745;23;20259;-81
2021/10/18 08:07:28;;;;;;;8.77;4.07;;;;;;;;;;4952424;28;20304;-82
2021/10/18 08:09:57;;;;;;;7.00;3.70;;;;;;;;;;4966431;28;20213;-82
2021/10/18 08:12:25;;;;;;;8.53;3.80;;;;;;;;;;4970355;28;20221;-82
2021/10/18 08:14:52;;;;;;;8.77;4.57;;;;;;;;;;4984889;28;20486;-81
2021/10/18 08:17:19;;;;;;;10.53;4.60;;;;;;;;;;4982483;28;20232;-83
2021/10/18 08:19:46;;;;;;;8.33;3.93;;;;;;;;;;4970495;28;20265;-82
2021/10/18 08:22:15;;;;;;;9.37;4.70;;;;;;;;;;4956585;28;20214;-82
2021/10/18 08:24:42;;;;;;;8.27;4.67;;;;;;;;;;4965262;28;20235;-82
2021/10/18 08:27:09;;;;;;;8.83;4.53;;;;;;;;;;4959457;28;20238;-82
2021/10/18 08:29:36;;;;;;;9.67;5.07;;;;;;;;;;4970696;28;20210;-82
2021/10/18 08:32:04;;;;;;;12.27;4.80;;;;;;;;;;4975904;28;20206;-82
2021/10/18 08:34:31;;;;;;;8.07;4.57;;;;;;;;;;4976803;28;20701;-82
2021/10/18 08:37:00;;;;;;;7.10;4.60;;;;;;;;;;4976425;28;20225;-82
2021/10/18 08:42:26;;;;;;;9.10;4.53;;;;;;;;;;4971725;28;20213;-82
2021/10/18 08:45:07;;;;;;;12.20;5.40;;;;;;;;;;4969495;28;20235;-82
2021/10/18 08:47:36;;;;;;;17.13;5.53;;;;;;;;;;4977326;28;20281;-82
2021/10/18 08:50:09;;;;;;;14.17;5.33;;;;;;;;;;4975424;28;20537;-82
2021/10/18 08:52:40;;;;;;;13.90;6.00;;;;;;;;;;4973188;28;20221;-82
2021/10/18 09:01:05;;;;;;;13.20;6.40;;;;;;;;;;4974604;28;20197;-82
2021/10/18 09:19:02;;;;;;;14.67;7.97;;;;;;;;;;4973920;28;20204;-82
2021/10/18 09:21:30;;;;;;;17.77;8.23;;;;;;;;;;4993347;28;20263;-82
2021/10/18 09:23:59;;;;;;;17.00;7.83;;;;;;;;;;4998227;28;20305;-82
2021/10/18 09:26:28;;;;;;;21.80;9.00;;;;;;;;;;4999290;28;20319;-82
2021/10/18 09:28:58;;;;;;;21.43;9.23;;;;;;;;;;4997164;28;20216;-81
2021/10/18 09:31:26;;;;;;;22.90;9.57;;;;;;;;;;4995883;28;20215;-82
2021/10/18 09:34:04;;;;;;;25.30;10.63;;;;;;;;;;4994411;28;20213;-82
2021/10/18 09:36:33;;;;;;;21.63;10.20;;;;;;;;;;4996709;28;20208;-82
2021/10/18 09:39:26;;;;;;;24.10;11.00;;;;;;;;;;4997856;28;20688;-82
2021/10/18 09:41:58;;;;;;;23.73;10.40;;;;;;;;;;4999425;28;20272;-82
2021/10/18 09:44:38;;;;;;;21.80;10.13;;;;;;;;;;4995980;28;20233;-82
2021/10/18 11:02:35;;;;;;;29.40;14.17;;;;;;;;;;4994581;28;20571;-83
2021/10/18 11:05:30;;;;;;;32.87;14.07;;;;;;;;;;4996079;28;20251;-83
2021/10/18 11:07:59;;;;;;;32.40;14.40;;;;;;;;;;4986252;28;20283;-83
2021/10/18 11:38:56;;;;;;;30.73;14.87;;;;;;;;;;4979256;28;20213;-81
2021/10/18 11:41:53;;;;;;;35.53;15.57;;;;;;;;;;5000385;28;20219;-81
2021/10/18 11:44:21;;;;;;;35.60;15.23;;;;;;;;;;4988929;28;20295;-82
2021/10/18 11:46:51;;;;;;;32.13;15.63;;;;;;;;;;4988685;28;20241;-82
2021/10/18 11:49:18;;;;;;;36.37;15.17;;;;;;;;;;4987548;28;20220;-82
2021/10/18 11:51:45;;;;;;;38.43;15.57;;;;;;;;;;4987525;28;20279;-82
2021/10/18 11:54:13;;;;;;;33.37;16.00;;;;;;;;;;4992893;28;20301;-82
2021/10/18 11:56:42;;;;;;;30.60;14.93;;;;;;;;;;4992405;28;20227;-82
2021/10/18 11:59:15;;;;;;;35.33;16.37;;;;;;;;;;4991796;28;20296;-82
2021/10/18 12:01:42;;;;;;;29.43;13.03;;;;;;;;;;4990248;28;20688;-83
2021/10/18 12:04:11;;;;;;;35.83;15.43;;;;;;;;;;4992342;28;20217;-82
2021/10/18 12:06:47;;;;;;;38.80;16.77;;;;;;;;;;4991181;28;20228;-82
2021/10/18 12:13:23;;;;;;;34.10;16.03;;;;;;;;;;4988757;28;20208;-83
2021/10/18 12:16:08;;;;;;;36.50;16.63;;;;;;;;;;4927747;29;20333;-83
2021/10/18 12:18:38;;;;;;;34.13;15.53;;;;;;;;;;4930806;29;20219;-82
2021/10/18 12:21:06;;;;;;;36.40;16.10;;;;;;;;;;4963859;28;20243;-82
2021/10/18 12:23:34;;;;;;;34.53;16.13;;;;;;;;;;4988220;28;20209;-82
2021/10/18 12:26:04;;;;;;;34.60;16.97;;;;;;;;;;4992322;28;20299;-82
2021/10/18 12:28:38;;;;;;;32.30;14.77;;;;;;;;;;4990695;28;20229;-82
2021/10/18 12:31:06;;;;;;;33.87;16.63;;;;;;;;;;4990708;28;20327;-82
2021/10/18 12:33:35;;;;;;;35.87;16.70;;;;;;;;;;4988319;28;20283;-82
2021/10/18 12:36:04;;;;;;;34.73;15.97;;;;;;;;;;4988040;28;20229;-83
2021/10/18 12:38:33;;;;;;;29.23;12.90;;;;;;;;;;4991078;28;20276;-83
2021/10/18 12:41:33;;;;;;;35.40;15.97;;;;;;;;;;4984229;28;20209;-82
2021/10/18 12:56:24;;;;;;;34.37;16.17;;;;;;;;;;4884950;29;20304;-83
2021/10/18 13:02:10;;;;;;;25.43;12.27;;;;;;;;;;4996930;28;20201;-83
2021/10/18 13:04:39;;;;;;;30.80;14.77;;;;;;;;;;4982948;28;20228;-84
2021/10/18 13:07:07;;;;;;;33.97;15.77;;;;;;;;;;5002409;28;20224;-83
2021/10/18 13:12:37;;;;;;;31.53;15.33;;;;;;;;;;4965485;28;20248;-82
2021/10/18 13:15:06;;;;;;;31.03;14.93;;;;;;;;;;4996972;28;20298;-84
2021/10/18 13:17:33;;;;;;;29.83;14.93;;;;;;;;;;5007692;28;20224;-83
2021/10/18 13:20:00;;;;;;;30.33;14.83;;;;;;;;;;5015019;28;20205;-82
2021/10/18 13:22:28;;;;;;;31.07;14.77;;;;;;;;;;5015076;28;20201;-82
2021/10/18 13:24:55;;;;;;;28.40;14.53;;;;;;;;;;4997866;28;20953;-83
2021/10/18 13:27:24;;;;;;;30.23;14.73;;;;;;;;;;4993465;28;20232;-83
2021/10/18 13:29:53;;;;;;;32.03;14.00;;;;;;;;;;4993367;28;20216;-82
2021/10/18 13:32:20;;;;;;;32.37;16.67;;;;;;;;;;4992534;28;20665;-83
2021/10/18 13:34:47;;;;;;;26.87;13.63;;;;;;;;;;4992393;28;20728;-82
2021/10/18 13:37:15;;;;;;;23.10;11.83;;;;;;;;;;4992600;28;20205;-82
2021/10/18 13:39:42;;;;;;;28.50;14.40;;;;;;;;;;4989769;28;20296;-83
2021/10/18 13:42:10;;;;;;;24.73;13.07;;;;;;;;;;4988658;28;20259;-82
2021/10/18 13:44:40;;;;;;;26.53;13.00;;;;;;;;;;4989890;28;20225;-83
2021/10/18 13:47:08;;;;;;;20.77;10.80;;;;;;;;;;4988834;28;20257;-82
2021/10/18 13:49:36;;;;;;;24.70;11.93;;;;;;;;;;4989541;28;20224;-82
2021/10/18 13:52:03;;;;;;;28.73;13.33;;;;;;;;;;4991493;28;20209;-83
2021/10/18 13:54:31;;;;;;;23.37;12.47;;;;;;;;;;4991321;28;20434;-83
2021/10/18 13:56:58;;;;;;;21.77;10.70;;;;;;;;;;4992256;28;20205;-82
2021/10/18 13:59:25;;;;;;;22.63;11.80;;;;;;;;;;4990668;28;20308;-82
2021/10/18 14:01:52;;;;;;;23.00;11.93;;;;;;;;;;4990549;28;20322;-81
2021/10/18 14:04:21;;;;;;;22.97;12.20;;;;;;;;;;4991385;28;20232;-83
2021/10/18 14:09:52;;;;;;;23.30;11.27;;;;;;;;;;4999788;23;20572;-79
2021/10/18 14:12:19;;;;;;;18.00;9.53;;;;;;;;;;4953835;28;20249;-79
2021/10/18 14:14:46;;;;;;;28.10;12.37;;;;;;;;;;4955424;28;20292;-78
2021/10/18 14:17:14;;;;;;;24.87;13.37;;;;;;;;;;4950118;28;20293;-78
2021/10/18 14:19:43;;;;;;;24.30;12.43;;;;;;;;;;4953203;28;20677;-79
2021/10/18 14:22:11;;;;;;;28.47;13.50;;;;;;;;;;4969987;28;20246;-80
2021/10/18 14:24:39;;;;;;;32.80;14.17;;;;;;;;;;4976252;28;20209;-79
2021/10/18 14:27:07;;;;;;;39.60;17.27;;;;;;;;;;4953567;28;20667;-78
2021/10/18 14:29:34;;;;;;;30.33;14.67;;;;;;;;;;4952833;28;20292;-80
2021/10/18 14:32:16;;;;;;;28.80;16.03;;;;;;;;;;4954779;28;20317;-79
2021/10/18 14:34:45;;;;;;;30.00;14.43;;;;;;;;;;4956686;28;20297;-79
2021/10/18 14:37:30;;;;;;;24.07;11.23;;;;;;;;;;4959585;28;20699;-79
2021/10/18 14:39:58;;;;;;;34.07;15.90;;;;;;;;;;4955834;28;20248;-79
2021/10/18 14:42:25;;;;;;;33.57;17.83;;;;;;;;;;4956244;28;20741;-80
2021/10/18 14:44:53;;;;;;;31.03;16.57;;;;;;;;;;4955757;28;20692;-79
2021/10/18 14:47:42;;;;;;;32.03;14.53;;;;;;;;;;4959171;28;20230;-79
2021/10/18 14:50:11;;;;;;;26.50;13.43;;;;;;;;;;4955159;28;20760;-79
2021/10/18 14:55:42;;;;;;;28.23;13.60;;;;;;;;;;4952559;28;20190;-79
2021/10/18 14:58:09;;;;;;;26.70;13.50;;;;;;;;;;4952957;28;20293;-79
2021/10/18 15:00:36;;;;;;;32.13;15.37;;;;;;;;;;4956452;28;20325;-79
2021/10/18 15:03:04;;;;;;;27.37;13.53;;;;;;;;;;4948220;28;20234;-81
2021/10/18 15:05:34;;;;;;;26.30;14.13;;;;;;;;;;4952379;28;20245;-78
2021/10/18 15:08:01;;;;;;;29.57;15.00;;;;;;;;;;4951942;28;20304;-80
2021/10/18 15:10:28;;;;;;;26.60;13.33;;;;;;;;;;4958846;28;20324;-79
2021/10/18 15:13:23;;;;;;;31.40;14.80;;;;;;;;;;4965995;28;20300;-81
2021/10/18 15:15:50;;;;;;;23.50;11.80;;;;;;;;;;4970587;28;20301;-78
2021/10/18 15:18:17;;;;;;;31.23;14.70;;;;;;;;;;4968570;28;20655;-78
2021/10/18 15:20:46;;;;;;;27.83;13.27;;;;;;;;;;4967403;28;20767;-78
2021/10/18 15:23:14;;;;;;;32.50;14.83;;;;;;;;;;4967783;28;20206;-78
2021/10/18 15:25:41;;;;;;;27.57;14.03;;;;;;;;;;4970678;28;20324;-79
2021/10/18 15:28:09;;;;;;;33.83;13.83;;;;;;;;;;4974090;28;20253;-79
2021/10/18 15:30:36;;;;;;;32.93;14.77;;;;;;;;;;4990809;28;20227;-79
2021/10/18 15:33:03;;;;;;;33.13;16.37;;;;;;;;;;4981491;28;20237;-78
2021/10/18 15:35:31;;;;;;;41.27;17.63;;;;;;;;;;4974693;28;20396;-78
2021/10/18 15:37:59;;;;;;;44.33;18.07;;;;;;;;;;4974053;28;20270;-79
2021/10/18 15:40:26;;;;;;;42.27;18.77;;;;;;;;;;4974119;28;20731;-78
2021/10/18 15:42:53;;;;;;;37.27;17.73;;;;;;;;;;4973368;28;20241;-78
2021/10/18 15:45:21;;;;;;;38.80;18.87;;;;;;;;;;4974241;28;20210;-79
2021/10/18 15:47:52;;;;;;;45.53;18.77;;;;;;;;;;4966718;28;20667;-80
2021/10/18 15:50:19;;;;;;;41.67;18.60;;;;;;;;;;4968685;28;20287;-78
2021/10/18 15:52:46;;;;;;;41.53;18.73;;;;;;;;;;4959405;28;20708;-78
2021/10/18 15:55:15;;;;;;;42.27;19.27;;;;;;;;;;4961229;28;20498;-75
2021/10/18 15:57:42;;;;;;;47.80;20.77;;;;;;;;;;4968186;28;20734;-77
2021/10/18 16:00:10;;;;;;;47.27;19.83;;;;;;;;;;4968505;28;20296;-78
2021/10/18 16:02:37;;;;;;;47.47;20.63;;;;;;;;;;4962880;28;20202;-77
2021/10/18 16:05:05;;;;;;;49.80;21.90;;;;;;;;;;4965626;28;20206;-78
2021/10/18 16:07:32;;;;;;;48.40;20.73;;;;;;;;;;4967128;28;20214;-77
2021/10/18 16:10:01;;;;;;;49.23;21.47;;;;;;;;;;4965108;28;20293;-78
2021/10/18 16:12:29;;;;;;;48.70;21.83;;;;;;;;;;4964317;28;20289;-78
2021/10/18 16:14:57;;;;;;;51.03;21.53;;;;;;;;;;4969998;28;20293;-80
2021/10/18 16:17:24;;;;;;;54.33;23.03;;;;;;;;;;4970739;28;20296;-79
2021/10/18 16:19:51;;;;;;;52.17;22.47;;;;;;;;;;4971702;28;20284;-79
2021/10/18 16:22:18;;;;;;;59.20;23.27;;;;;;;;;;4972375;28;20208;-79
2021/10/18 16:24:45;;;;;;;58.33;24.20;;;;;;;;;;4971487;28;20210;-79
2021/10/18 16:27:12;;;;;;;61.97;27.83;;;;;;;;;;4970474;28;20209;-77
2021/10/18 16:29:41;;;;;;;52.90;23.23;;;;;;;;;;4970295;28;20722;-77
2021/10/18 16:32:08;;;;;;;55.43;23.77;;;;;;;;;;4969403;28;20267;-77
2021/10/18 16:34:35;;;;;;;51.20;22.70;;;;;;;;;;4970493;28;20292;-78
2021/10/18 16:37:03;;;;;;;54.63;23.50;;;;;;;;;;4972279;28;20288;-76
2021/10/18 16:39:30;;;;;;;57.83;23.50;;;;;;;;;;4974379;28;20305;-78
2021/10/18 16:41:59;;;;;;;51.40;22.47;;;;;;;;;;4968493;28;20308;-76
2021/10/18 16:44:27;;;;;;;51.83;22.37;;;;;;;;;;4967788;28;20735;-77
2021/10/18 16:46:55;;;;;;;52.63;22.60;;;;;;;;;;4969917;28;20215;-78
2021/10/18 16:49:22;;;;;;;60.73;23.97;;;;;;;;;;4969176;28;20587;-78
2021/10/18 16:51:51;;;;;;;53.57;24.57;;;;;;;;;;4967940;28;20288;-77
2021/10/18 16:54:19;;;;;;;52.43;22.43;;;;;;;;;;4968494;28;20206;-78
2021/10/18 16:56:46;;;;;;;52.47;22.67;;;;;;;;;;4967359;28;20209;-78
2021/10/18 16:59:14;;;;;;;57.60;23.17;;;;;;;;;;4968812;28;20454;-77
2021/10/18 17:01:43;;;;;;;60.27;24.17;;;;;;;;;;4966107;28;20890;-77
2021/10/18 17:04:11;;;;;;;57.93;24.43;;;;;;;;;;4969253;28;20641;-78
2021/10/18 17:06:40;;;;;;;49.20;22.20;;;;;;;;;;4968495;28;20685;-77
2021/10/18 17:09:07;;;;;;;53.77;22.83;;;;;;;;;;4970020;28;20241;-78
2021/10/18 17:11:35;;;;;;;51.57;23.90;;;;;;;;;;4967601;28;20323;-76
2021/10/18 17:14:02;;;;;;;54.27;22.87;;;;;;;;;;4972812;28;20282;-76
2021/10/18 17:16:29;;;;;;;49.57;22.00;;;;;;;;;;4969351;28;20655;-77
2021/10/18 17:18:56;;;;;;;59.20;23.40;;;;;;;;;;4967112;28;20260;-76
2021/10/18 17:21:25;;;;;;;53.10;24.07;;;;;;;;;;4968173;28;20235;-76
2021/10/18 17:23:52;;;;;;;48.90;22.87;;;;;;;;;;4967297;28;20293;-77
2021/10/18 17:26:19;;;;;;;53.43;23.30;;;;;;;;;;4969686;28;20248;-78
2021/10/18 17:28:47;;;;;;;48.60;21.37;;;;;;;;;;4957434;28;20334;-77
2021/10/18 17:31:14;;;;;;;56.70;23.13;;;;;;;;;;4961187;28;20233;-77
2021/10/18 17:33:42;;;;;;;52.20;23.10;;;;;;;;;;4958419;28;20211;-77
2021/10/18 17:36:09;;;;;;;55.57;25.10;;;;;;;;;;4960779;28;20288;-78
2021/10/18 17:38:38;;;;;;;55.47;22.47;;;;;;;;;;4958673;28;20212;-77
2021/10/18 17:41:06;;;;;;;52.53;22.63;;;;;;;;;;4962465;28;20578;-76
2021/10/18 17:43:33;;;;;;;50.00;22.53;;;;;;;;;;4965810;28;20238;-79
2021/10/18 17:46:02;;;;;;;61.33;22.70;;;;;;;;;;4976916;28;20226;-78
2021/10/18 17:48:29;;;;;;;59.33;23.07;;;;;;;;;;4973031;28;20312;-78
2021/10/18 17:50:57;;;;;;;53.50;22.47;;;;;;;;;;4961778;28;20225;-81
2021/10/18 17:53:24;;;;;;;51.30;21.87;;;;;;;;;;4958872;28;20210;-81
2021/10/18 17:55:53;;;;;;;55.53;22.10;;;;;;;;;;4961755;28;20237;-81
2021/10/18 17:58:20;;;;;;;53.97;23.40;;;;;;;;;;4960604;28;20241;-79
2021/10/18 18:00:47;;;;;;;50.73;22.93;;;;;;;;;;4962925;28;20226;-79
2021/10/18 18:03:15;;;;;;;46.67;20.50;;;;;;;;;;4967847;28;20279;-78
2021/10/18 18:05:42;;;;;;;59.80;23.30;;;;;;;;;;4967164;28;20285;-79
2021/10/18 18:08:10;;;;;;;55.03;23.17;;;;;;;;;;4964066;28;20320;-78
2021/10/18 18:10:37;;;;;;;57.53;23.03;;;;;;;;;;4957898;28;20237;-79
2021/10/18 18:13:06;;;;;;;49.67;21.90;;;;;;;;;;4958549;28;20273;-77
2021/10/18 18:15:35;;;;;;;52.87;22.57;;;;;;;;;;4957913;28;20731;-79
2021/10/18 18:18:02;;;;;;;54.03;22.77;;;;;;;;;;4971209;28;20275;-79
2021/10/18 18:20:30;;;;;;;79.23;28.10;;;;;;;;;;4958511;28;20309;-78
2021/10/18 18:22:57;;;;;;;57.30;24.63;;;;;;;;;;4963508;28;20293;-78
2021/10/18 18:25:24;;;;;;;56.97;24.20;;;;;;;;;;4967633;28;20245;-75
2021/10/18 18:27:52;;;;;;;56.30;23.47;;;;;;;;;;4969632;28;20238;-79
2021/10/18 18:30:21;;;;;;;57.03;22.43;;;;;;;;;;4973000;28;20659;-79
2021/10/18 18:32:49;;;;;;;53.23;21.43;;;;;;;;;;4968917;28;20233;-79
2021/10/18 18:35:17;;;;;;;57.90;23.07;;;;;;;;;;4972813;28;20300;-79
2021/10/18 18:37:45;;;;;;;62.50;25.70;;;;;;;;;;4972665;28;20308;-77
2021/10/18 18:40:13;;;;;;;63.23;24.10;;;;;;;;;;4971262;28;20279;-78
2021/10/18 18:42:40;;;;;;;67.70;27.53;;;;;;;;;;4967545;28;20201;-77
2021/10/18 18:45:08;;;;;;;56.40;24.87;;;;;;;;;;4969842;28;20233;-76
2021/10/18 18:47:36;;;;;;;69.20;26.53;;;;;;;;;;4968796;28;20296;-75
2021/10/18 18:50:08;;;;;;;57.23;25.00;;;;;;;;;;4969516;28;20229;-78
2021/10/18 18:52:36;;;;;;;73.80;31.87;;;;;;;;;;4980526;28;20206;-78
2021/10/18 18:55:04;;;;;;;51.43;25.03;;;;;;;;;;4987169;28;20194;-79
2021/10/18 18:57:31;;;;;;;72.97;31.87;;;;;;;;;;4971841;28;20694;-82
2021/10/18 18:59:58;;;;;;;65.33;27.53;;;;;;;;;;4971457;28;20241;-81
2021/10/18 19:02:25;;;;;;;74.00;30.73;;;;;;;;;;4971011;28;20209;-81
2021/10/18 19:04:54;;;;;;;78.00;32.70;;;;;;;;;;4973352;28;20301;-82
2021/10/18 19:07:21;;;;;;;69.13;26.63;;;;;;;;;;4970105;28;20237;-79
2021/10/18 19:09:48;;;;;;;70.03;28.40;;;;;;;;;;4974074;28;20305;-78
2021/10/18 19:12:15;;;;;;;51.97;21.27;;;;;;;;;;4975905;28;20222;-79
2021/10/18 19:14:43;;;;;;;65.33;27.70;;;;;;;;;;4969418;28;20214;-78
2021/10/18 19:17:10;;;;;;;101.33;43.97;;;;;;;;;;4969148;28;20244;-77
2021/10/18 19:19:38;;;;;;;86.23;36.93;;;;;;;;;;4974327;28;20205;-79